Portada
METAR-TAF:

METAR-TAF

Aeroports :

Batman, Turquia

latitud: 37-52N, longitud: 041-10E, altitud: 540 m

Observació

L'informe es va fer fa 48 minuts, a les 23:20 UTC
Vent 1 kt del Nord/Nord-Est
Temperatura 20°C
Humitat 68%
Pressió 1009 hPa
Visibilitat 10 km o més
sense núvols per sota de 1500 mi sense presència de cumulonimbus.

METAR: LTCJ 192320Z 02001KT CAVOK 20/14 Q1009 NOSIG RMK RWY20 VRB01KT SKC

Hora: 03:08 (00:08 UTC)

Pronòstic

L'informe es va fer fa 1 hora i 28 minuts, a les 22:40 UTC
Pronòstic vàlid del 20 a les 00 UTC al 20 a les 24 UTC
Vent 2 kt amb direcció variable
Visibilitat 10 km o més
sense núvols per sota de 1500 mi sense presència de cumulonimbus.

TAF: LTCJ 192240Z 2000/2024 VRB02KT CAVOK

Observacions i pronòstics meteorològics de més de 4000 aeroports (METAR i TAF).

Les estacions disponibles són els punts grocs i vermells al mapa.

Posi el ratolí al punt desitjat per veure el nom de l'estació.

Feu clic per veure les observacions i els pronòstics meteorològics.

Per canviar el mapa: feu clic els botons verds amb una creu de color negre per apropar; al botó verd amb un guió per allunyar la imatge; o en les fletxes verdes per a mapes adjacents.


METAR-TAF: